Time;durP1;ratioP1;P1;durP2;ratioP2;P2;SDS_P1;SDS_P2;PMS_P1;PMS_P2;Temp;Humidity;BMP_temperature;BMP_pressure;BME280_temperature;BME280_humidity;BME280_pressure;Samples;Min_cycle;Max_cycle;Signal;HPM_P1;HPM_P2
2023/02/24 00:01:22;;;;;;;10.57;6.63;;;;;;;;;;5055479;28;20509;-84
2023/02/24 00:03:49;;;;;;;11.35;6.60;;;;;;;;;;5071208;28;20035;-84
2023/02/24 00:06:15;;;;;;;12.55;6.85;;;;;;;;;;5069374;28;20484;-83
2023/02/24 00:08:41;;;;;;;12.98;7.75;;;;;;;;;;5054275;28;20027;-84
2023/02/24 00:11:12;;;;;;;11.65;7.90;;;;;;;;;;5069190;28;20486;-84
2023/02/24 00:13:46;;;;;;;18.90;10.80;;;;;;;;;;5052630;28;20032;-84
2023/02/24 00:16:16;;;;;;;13.55;9.95;;;;;;;;;;5055001;28;20020;-85
2023/02/24 00:18:43;;;;;;;11.80;8.07;;;;;;;;;;5057789;28;20024;-85
2023/02/24 00:21:12;;;;;;;9.35;6.70;;;;;;;;;;5057209;28;20020;-85
2023/02/24 00:23:39;;;;;;;10.07;6.63;;;;;;;;;;5058610;28;20031;-85
2023/02/24 00:26:06;;;;;;;10.52;7.03;;;;;;;;;;5053914;28;20489;-85
2023/02/24 00:28:36;;;;;;;10.88;7.93;;;;;;;;;;5054590;28;20337;-84
2023/02/24 00:31:06;;;;;;;16.35;7.75;;;;;;;;;;5056166;28;20027;-84
2023/02/24 00:33:33;;;;;;;11.23;6.80;;;;;;;;;;5066770;28;20168;-82
2023/02/24 00:36:06;;;;;;;11.75;6.80;;;;;;;;;;5055782;28;20122;-84
2023/02/24 00:38:34;;;;;;;12.07;7.90;;;;;;;;;;5056830;28;20028;-85
2023/02/24 00:41:02;;;;;;;12.25;7.68;;;;;;;;;;5052628;28;20510;-84
2023/02/24 00:43:28;;;;;;;10.15;7.38;;;;;;;;;;5052226;28;20028;-85
2023/02/24 00:45:54;;;;;;;11.90;7.60;;;;;;;;;;5049334;28;20025;-85
2023/02/24 00:48:20;;;;;;;8.88;6.45;;;;;;;;;;5057272;28;20028;-86
2023/02/24 00:50:46;;;;;;;11.43;7.28;;;;;;;;;;5057464;28;20043;-84
2023/02/24 00:53:13;;;;;;;9.68;7.13;;;;;;;;;;5056668;28;20509;-83
2023/02/24 00:55:39;;;;;;;8.90;6.13;;;;;;;;;;5051206;28;20051;-84
2023/02/24 00:58:06;;;;;;;9.45;6.63;;;;;;;;;;5052623;28;20112;-83
2023/02/24 01:00:35;;;;;;;10.27;6.32;;;;;;;;;;5058063;28;20020;-84
2023/02/24 01:03:02;;;;;;;11.82;6.90;;;;;;;;;;5071068;28;20329;-83
2023/02/24 01:05:28;;;;;;;9.93;6.70;;;;;;;;;;5062510;28;20249;-84
2023/02/24 01:07:54;;;;;;;9.30;6.28;;;;;;;;;;5074188;28;20559;-84
2023/02/24 01:10:25;;;;;;;13.05;6.22;;;;;;;;;;5078721;28;20071;-83
2023/02/24 01:12:52;;;;;;;13.73;6.72;;;;;;;;;;5075949;28;20032;-85
2023/02/24 01:15:20;;;;;;;11.55;7.75;;;;;;;;;;5065066;28;20431;-85
2023/02/24 01:17:46;;;;;;;8.32;5.72;;;;;;;;;;5078019;28;20604;-85
2023/02/24 01:20:17;;;;;;;16.02;10.45;;;;;;;;;;5065360;28;20024;-85
2023/02/24 01:22:48;;;;;;;17.88;12.25;;;;;;;;;;5069029;28;20024;-85
2023/02/24 01:25:14;;;;;;;15.30;11.70;;;;;;;;;;5054677;28;20032;-84
2023/02/24 01:27:41;;;;;;;18.38;10.48;;;;;;;;;;5056850;28;20223;-83
2023/02/24 01:30:14;;;;;;;14.45;9.45;;;;;;;;;;5051960;28;20429;-85
2023/02/24 01:32:42;;;;;;;13.82;7.85;;;;;;;;;;5049552;28;20329;-84
2023/02/24 01:35:10;;;;;;;10.48;6.80;;;;;;;;;;5081217;28;20046;-85
2023/02/24 01:37:36;;;;;;;11.82;6.72;;;;;;;;;;5054089;28;20024;-85
2023/02/24 01:40:10;;;;;;;14.27;7.15;;;;;;;;;;5064558;28;20024;-85
2023/02/24 01:42:37;;;;;;;12.98;7.10;;;;;;;;;;5067875;28;20466;-84
2023/02/24 01:45:11;;;;;;;12.30;7.03;;;;;;;;;;5063308;28;20514;-84
2023/02/24 01:47:37;;;;;;;11.20;7.18;;;;;;;;;;5048333;28;20261;-84
2023/02/24 01:50:04;;;;;;;9.35;6.47;;;;;;;;;;5054346;28;20301;-84
2023/02/24 01:52:34;;;;;;;13.73;8.13;;;;;;;;;;5072620;28;20031;-85
2023/02/24 01:55:03;;;;;;;11.30;7.80;;;;;;;;;;5049443;28;20718;-84
2023/02/24 01:57:31;;;;;;;12.77;9.05;;;;;;;;;;5053167;28;20077;-84
2023/02/24 02:00:08;;;;;;;14.85;9.50;;;;;;;;;;5056213;28;20039;-84
2023/02/24 02:02:34;;;;;;;12.32;8.30;;;;;;;;;;5054145;28;20096;-83
2023/02/24 02:05:04;;;;;;;11.48;8.35;;;;;;;;;;5058645;28;20040;-84
2023/02/24 02:07:30;;;;;;;11.43;8.13;;;;;;;;;;5057263;28;20062;-83
2023/02/24 02:10:02;;;;;;;12.90;7.93;;;;;;;;;;5053644;28;20020;-84
2023/02/24 02:12:29;;;;;;;;;;;;;;;;;;5078294;28;20478;-83
2023/02/24 02:14:58;;;;;;;11.30;7.00;;;;;;;;;;5062377;28;19969;-84
2023/02/24 02:17:30;;;;;;;13.40;6.80;;;;;;;;;;5056442;28;20035;-84
2023/02/24 02:20:06;;;;;;;12.05;7.32;;;;;;;;;;5062357;28;20056;-83
2023/02/24 02:22:51;;;;;;;12.88;8.55;;;;;;;;;;5062032;28;20090;-83
2023/02/24 02:25:28;;;;;;;15.13;8.63;;;;;;;;;;5079745;28;20043;-84
2023/02/24 02:28:14;;;;;;;11.80;9.18;;;;;;;;;;5050539;28;20037;-84
2023/02/24 02:30:44;;;;;;;19.23;10.25;;;;;;;;;;5059910;28;20390;-85
2023/02/24 02:33:20;;;;;;;19.70;13.07;;;;;;;;;;5056767;28;20269;-85
2023/02/24 02:35:53;;;;;;;17.30;10.45;;;;;;;;;;5060749;28;20140;-85
2023/02/24 02:38:24;;;;;;;13.20;9.52;;;;;;;;;;5076244;28;20510;-83
2023/02/24 02:41:00;;;;;;;14.07;10.13;;;;;;;;;;5057184;28;20578;-85
2023/02/24 02:43:56;;;;;;;12.98;8.57;;;;;;;;;;5078811;28;20037;-84
2023/02/24 02:46:33;;;;;;;13.75;6.88;;;;;;;;;;5042685;28;20074;-84
2023/02/24 02:49:05;;;;;;;14.02;7.50;;;;;;;;;;5075210;28;20032;-85
2023/02/24 02:51:39;;;;;;;13.45;6.60;;;;;;;;;;5060673;28;20035;-85
2023/02/24 02:54:14;;;;;;;13.60;6.50;;;;;;;;;;5076620;28;20040;-85
2023/02/24 02:56:42;;;;;;;8.50;5.70;;;;;;;;;;5078715;27;20047;-85
2023/02/24 02:59:11;;;;;;;10.68;6.10;;;;;;;;;;5072411;28;20406;-84
2023/02/24 03:01:42;;;;;;;11.48;6.60;;;;;;;;;;5093996;27;20031;-83
2023/02/24 03:04:09;;;;;;;9.98;6.15;;;;;;;;;;5079640;28;20089;-83
2023/02/24 03:06:40;;;;;;;13.23;6.55;;;;;;;;;;5092910;27;20024;-84
2023/02/24 03:09:14;;;;;;;9.27;6.15;;;;;;;;;;5082427;28;20032;-85
2023/02/24 03:12:07;;;;;;;15.82;7.20;;;;;;;;;;5085139;28;20036;-84
2023/02/24 03:14:38;;;;;;;9.50;6.57;;;;;;;;;;5073903;27;20051;-86
2023/02/24 03:17:09;;;;;;;12.57;6.85;;;;;;;;;;5074299;28;20099;-85
2023/02/24 03:19:38;;;;;;;12.13;6.68;;;;;;;;;;5089936;27;20115;-85
2023/02/24 03:22:11;;;;;;;11.65;6.50;;;;;;;;;;5090471;27;20027;-85
2023/02/24 03:24:38;;;;;;;11.25;7.20;;;;;;;;;;5096770;27;20046;-85
2023/02/24 03:27:25;;;;;;;10.25;7.60;;;;;;;;;;5088868;28;20089;-84
2023/02/24 03:30:08;;;;;;;10.55;6.65;;;;;;;;;;5078724;28;20467;-85
2023/02/24 03:32:49;;;;;;;12.00;6.13;;;;;;;;;;5098047;27;20031;-85
2023/02/24 03:35:24;;;;;;;12.65;6.00;;;;;;;;;;5088850;28;20032;-84
2023/02/24 03:37:54;;;;;;;12.50;6.07;;;;;;;;;;5073149;27;20058;-85
2023/02/24 03:40:21;;;;;;;8.52;5.10;;;;;;;;;;5099529;27;20065;-85
2023/02/24 03:42:48;;;;;;;12.40;6.03;;;;;;;;;;5097130;28;20024;-84
2023/02/24 03:45:15;;;;;;;9.60;4.80;;;;;;;;;;5099069;27;20043;-85
2023/02/24 03:47:44;;;;;;;10.73;5.22;;;;;;;;;;5078983;27;20267;-84
2023/02/24 03:50:26;;;;;;;10.75;5.10;;;;;;;;;;5092389;27;20122;-84
2023/02/24 03:52:55;;;;;;;11.07;5.03;;;;;;;;;;5077720;28;20027;-84
2023/02/24 03:55:25;;;;;;;14.68;5.60;;;;;;;;;;5095843;27;20086;-85
2023/02/24 03:58:00;;;;;;;12.27;6.00;;;;;;;;;;5088696;28;20119;-84
2023/02/24 04:00:35;;;;;;;9.85;6.03;;;;;;;;;;5086430;28;20612;-83
2023/02/24 04:03:22;;;;;;;9.65;5.20;;;;;;;;;;5080341;28;20036;-84
2023/02/24 04:05:57;;;;;;;11.70;5.03;;;;;;;;;;5102100;27;20363;-85
2023/02/24 04:08:26;;;;;;;10.05;5.88;;;;;;;;;;5083454;28;20024;-84
2023/02/24 04:10:52;;;;;;;10.02;4.43;;;;;;;;;;5079527;28;20189;-84
2023/02/24 04:13:18;;;;;;;9.90;4.28;;;;;;;;;;5075332;27;20032;-83
2023/02/24 04:15:49;;;;;;;13.48;4.60;;;;;;;;;;5062389;28;20082;-84
2023/02/24 04:18:20;;;;;;;14.38;5.10;;;;;;;;;;5078940;27;20032;-83
2023/02/24 04:20:51;;;;;;;12.63;4.97;;;;;;;;;;5082909;27;20280;-84
2023/02/24 04:23:20;;;;;;;11.10;6.13;;;;;;;;;;5080829;27;20583;-84
2023/02/24 04:25:48;;;;;;;12.35;4.53;;;;;;;;;;5073880;28;20028;-82
2023/02/24 04:28:17;;;;;;;13.32;5.18;;;;;;;;;;5061107;28;20122;-84
2023/02/24 04:30:47;;;;;;;8.48;4.93;;;;;;;;;;5092534;27;20031;-84
2023/02/24 04:33:13;;;;;;;12.32;4.82;;;;;;;;;;5078306;28;20061;-85
2023/02/24 04:35:40;;;;;;;9.73;5.03;;;;;;;;;;5072393;28;20016;-84
2023/02/24 04:38:09;;;;;;;11.82;4.88;;;;;;;;;;5063226;27;20027;-84
2023/02/24 04:40:35;;;;;;;10.30;4.90;;;;;;;;;;5056765;28;20059;-84
2023/02/24 04:43:02;;;;;;;7.97;4.70;;;;;;;;;;5080258;28;20076;-84
2023/02/24 04:45:30;;;;;;;12.68;5.15;;;;;;;;;;5071648;27;20458;-84
2023/02/24 04:47:59;;;;;;;9.57;5.28;;;;;;;;;;5066626;28;20461;-85
2023/02/24 04:50:27;;;;;;;13.95;5.72;;;;;;;;;;5073583;28;20032;-85
2023/02/24 04:52:53;;;;;;;14.35;4.65;;;;;;;;;;5072830;28;20161;-85
2023/02/24 04:55:21;;;;;;;15.02;4.65;;;;;;;;;;5077959;28;20039;-85
2023/02/24 04:57:48;;;;;;;10.20;4.57;;;;;;;;;;5092477;27;20035;-85
2023/02/24 05:00:20;;;;;;;11.73;4.30;;;;;;;;;;5078722;28;20215;-85
2023/02/24 05:02:48;;;;;;;11.48;3.95;;;;;;;;;;5078397;28;20031;-85
2023/02/24 05:05:14;;;;;;;11.23;4.00;;;;;;;;;;5081133;28;20042;-83
2023/02/24 05:07:41;;;;;;;11.13;4.97;;;;;;;;;;5077053;28;20504;-84
2023/02/24 05:10:07;;;;;;;11.35;4.88;;;;;;;;;;5078425;28;20023;-84
2023/02/24 05:12:33;;;;;;;9.73;4.85;;;;;;;;;;5075377;28;20413;-84
2023/02/24 05:15:00;;;;;;;7.78;5.15;;;;;;;;;;5072942;28;20015;-84
2023/02/24 05:17:28;;;;;;;9.57;4.63;;;;;;;;;;5078407;28;20027;-83
2023/02/24 05:22:39;;;;;;;9.90;5.40;;;;;;;;;;5088654;28;20092;-83
2023/02/24 05:25:05;;;;;;;11.90;5.45;;;;;;;;;;5075142;28;20027;-84
2023/02/24 05:27:36;;;;;;;11.98;4.78;;;;;;;;;;5065383;28;20033;-83
2023/02/24 05:30:03;;;;;;;;;;;;;;;;;;5080375;28;20023;-83
2023/02/24 05:32:33;;;;;;;9.02;4.57;;;;;;;;;;5060220;28;19908;-84
2023/02/24 05:34:59;;;;;;;14.80;4.30;;;;;;;;;;5060660;28;20038;-84
2023/02/24 05:37:25;;;;;;;13.50;4.80;;;;;;;;;;5074098;28;20019;-84
2023/02/24 05:39:55;;;;;;;12.95;4.32;;;;;;;;;;5089305;28;20051;-84
2023/02/24 05:42:21;;;;;;;12.63;5.00;;;;;;;;;;5077127;28;20498;-82
2023/02/24 05:44:48;;;;;;;9.02;4.07;;;;;;;;;;5075064;28;20032;-84
2023/02/24 05:47:18;;;;;;;15.73;5.93;;;;;;;;;;5073359;28;20051;-84
2023/02/24 05:49:46;;;;;;;10.70;4.13;;;;;;;;;;5095510;27;20027;-85
2023/02/24 05:52:13;;;;;;;9.30;4.00;;;;;;;;;;5074959;28;20016;-84
2023/02/24 05:54:41;;;;;;;7.78;4.18;;;;;;;;;;5092030;27;20030;-84
2023/02/24 05:57:19;;;;;;;10.13;4.47;;;;;;;;;;5076083;28;20185;-83
2023/02/24 05:59:45;;;;;;;10.38;4.88;;;;;;;;;;5054134;28;20020;-83
2023/02/24 06:02:13;;;;;;;10.32;5.18;;;;;;;;;;5064652;28;20054;-83
2023/02/24 06:04:52;;;;;;;9.55;4.88;;;;;;;;;;5077262;28;20044;-84
2023/02/24 06:07:33;;;;;;;11.00;5.13;;;;;;;;;;5053408;28;20036;-84
2023/02/24 06:09:59;;;;;;;14.73;4.57;;;;;;;;;;5062565;28;20112;-84
2023/02/24 06:12:27;;;;;;;8.77;4.20;;;;;;;;;;5062009;28;20027;-84
2023/02/24 06:14:53;;;;;;;10.75;4.55;;;;;;;;;;5077557;28;20041;-85
2023/02/24 06:17:20;;;;;;;11.77;4.45;;;;;;;;;;5060255;28;20028;-83
2023/02/24 06:19:49;;;;;;;10.48;3.83;;;;;;;;;;5071893;28;20012;-82
2023/02/24 06:22:17;;;;;;;9.55;4.32;;;;;;;;;;5074113;28;20016;-83
2023/02/24 06:24:44;;;;;;;13.45;4.68;;;;;;;;;;5074205;28;20036;-82
2023/02/24 06:27:17;;;;;;;12.32;5.05;;;;;;;;;;5062368;28;20570;-83
2023/02/24 06:29:50;;;;;;;10.23;4.00;;;;;;;;;;5058255;28;20021;-83
2023/02/24 06:32:22;;;;;;;17.08;4.20;;;;;;;;;;5068294;28;20016;-84
2023/02/24 06:34:48;;;;;;;9.10;4.22;;;;;;;;;;5076478;28;20260;-83
2023/02/24 06:37:15;;;;;;;12.18;4.55;;;;;;;;;;5061434;28;20051;-83
2023/02/24 06:39:42;;;;;;;12.13;5.28;;;;;;;;;;5074035;28;20023;-83
2023/02/24 06:42:09;;;;;;;10.25;5.53;;;;;;;;;;5069988;28;20149;-83
2023/02/24 06:44:37;;;;;;;9.80;4.25;;;;;;;;;;5074478;28;20039;-82
2023/02/24 06:47:04;;;;;;;9.93;4.78;;;;;;;;;;5069975;28;20025;-82
2023/02/24 06:49:31;;;;;;;9.50;4.97;;;;;;;;;;5067876;28;20113;-83
2023/02/24 06:51:58;;;;;;;11.27;4.65;;;;;;;;;;5070493;28;20020;-83
2023/02/24 06:54:27;;;;;;;9.43;5.32;;;;;;;;;;5051097;28;20148;-84
2023/02/24 06:56:53;;;;;;;8.18;4.93;;;;;;;;;;5093713;27;20130;-83
2023/02/24 06:59:27;;;;;;;8.25;5.00;;;;;;;;;;5075610;28;20016;-83
2023/02/24 07:01:57;;;;;;;8.02;4.97;;;;;;;;;;5092137;28;20050;-83
2023/02/24 07:04:23;;;;;;;10.10;5.97;;;;;;;;;;5081944;28;20066;-83
2023/02/24 07:06:55;;;;;;;9.43;6.13;;;;;;;;;;5099741;27;20027;-83
2023/02/24 07:09:23;;;;;;;11.30;5.35;;;;;;;;;;5078744;28;20020;-82
2023/02/24 07:11:51;;;;;;;6.20;4.70;;;;;;;;;;5094119;27;20024;-83
2023/02/24 07:14:21;;;;;;;13.05;6.10;;;;;;;;;;5070172;28;20058;-83
2023/02/24 07:16:52;;;;;;;14.85;6.10;;;;;;;;;;5080620;27;20024;-84
2023/02/24 07:19:19;;;;;;;12.57;6.07;;;;;;;;;;5077507;27;20477;-82
2023/02/24 07:21:48;;;;;;;10.25;5.90;;;;;;;;;;5077824;28;20020;-82
2023/02/24 07:24:23;;;;;;;7.10;5.30;;;;;;;;;;5092242;27;20039;-82
2023/02/24 07:27:00;;;;;;;11.30;6.55;;;;;;;;;;5068473;28;20097;-82
2023/02/24 07:29:27;;;;;;;14.98;6.30;;;;;;;;;;5078556;28;20058;-82
2023/02/24 07:31:53;;;;;;;14.50;7.78;;;;;;;;;;5071846;28;20024;-82
2023/02/24 07:34:24;;;;;;;18.25;9.35;;;;;;;;;;5087285;27;20290;-83
2023/02/24 07:36:51;;;;;;;18.25;9.15;;;;;;;;;;5075858;28;20020;-83
2023/02/24 07:39:18;;;;;;;16.20;8.55;;;;;;;;;;5092758;27;20796;-82
2023/02/24 07:41:45;;;;;;;11.15;7.35;;;;;;;;;;5086828;28;20036;-83
2023/02/24 07:44:15;;;;;;;15.23;8.48;;;;;;;;;;5079591;28;20039;-82
2023/02/24 07:46:42;;;;;;;12.38;6.85;;;;;;;;;;5093567;27;20020;-82
2023/02/24 07:49:11;;;;;;;12.02;6.22;;;;;;;;;;5094520;27;20026;-83
2023/02/24 07:51:37;;;;;;;9.80;6.15;;;;;;;;;;5078323;28;20031;-83
2023/02/24 07:54:04;;;;;;;10.90;5.43;;;;;;;;;;5063293;28;20183;-82
2023/02/24 07:56:31;;;;;;;10.27;6.13;;;;;;;;;;5065871;28;20515;-82
2023/02/24 07:59:02;;;;;;;9.85;5.93;;;;;;;;;;5072695;28;20281;-83
2023/02/24 08:01:36;;;;;;;14.23;7.38;;;;;;;;;;5089367;27;20056;-82
2023/02/24 08:04:06;;;;;;;13.75;7.15;;;;;;;;;;5070459;28;20064;-82
2023/02/24 08:06:37;;;;;;;11.27;6.47;;;;;;;;;;5059438;28;20348;-82
2023/02/24 08:09:17;;;;;;;14.52;7.13;;;;;;;;;;5057592;28;20024;-83
2023/02/24 08:11:44;;;;;;;16.13;7.53;;;;;;;;;;5058119;28;20022;-82
2023/02/24 08:14:15;;;;;;;13.40;8.68;;;;;;;;;;5073719;28;20287;-83
2023/02/24 08:16:45;;;;;;;18.60;10.52;;;;;;;;;;5059577;28;20036;-83
2023/02/24 08:19:12;;;;;;;22.27;11.57;;;;;;;;;;5079897;28;20039;-82
2023/02/24 08:21:46;;;;;;;20.85;11.07;;;;;;;;;;5059251;28;20019;-83
2023/02/24 08:24:34;;;;;;;25.88;12.63;;;;;;;;;;5072563;28;20063;-82
2023/02/24 08:27:05;;;;;;;16.75;12.15;;;;;;;;;;5043762;28;20274;-83
2023/02/24 08:29:38;;;;;;;21.58;13.60;;;;;;;;;;5056389;28;20115;-83
2023/02/24 08:32:09;;;;;;;20.63;11.85;;;;;;;;;;5051325;28;20035;-83
2023/02/24 08:34:36;;;;;;;23.35;13.18;;;;;;;;;;5063522;28;20024;-84
2023/02/24 08:37:02;;;;;;;15.38;12.23;;;;;;;;;;5052447;28;20112;-84
2023/02/24 08:39:31;;;;;;;19.98;12.52;;;;;;;;;;5065505;28;20035;-83
2023/02/24 08:41:57;;;;;;;22.65;13.88;;;;;;;;;;5060817;28;20527;-83
2023/02/24 08:44:25;;;;;;;20.30;13.32;;;;;;;;;;5048666;28;20044;-83
2023/02/24 08:46:53;;;;;;;30.10;17.70;;;;;;;;;;5075373;28;20039;-83
2023/02/24 08:49:19;;;;;;;27.90;16.10;;;;;;;;;;5055984;28;20173;-84
2023/02/24 08:51:46;;;;;;;34.25;18.73;;;;;;;;;;5059068;28;20324;-82
2023/02/24 08:54:17;;;;;;;38.70;19.00;;;;;;;;;;5059242;28;20036;-83
2023/02/24 08:56:54;;;;;;;36.55;22.15;;;;;;;;;;5070798;28;20051;-84
2023/02/24 08:59:36;;;;;;;34.08;20.60;;;;;;;;;;5079224;28;20517;-83
2023/02/24 09:04:50;;;;;;;29.67;19.30;;;;;;;;;;5094477;28;20142;-84
2023/02/24 09:07:20;;;;;;;33.78;21.27;;;;;;;;;;5076866;28;20027;-83
2023/02/24 09:09:46;;;;;;;33.38;20.80;;;;;;;;;;5090131;28;20023;-82
2023/02/24 09:12:20;;;;;;;29.95;20.13;;;;;;;;;;5084740;28;20063;-82
2023/02/24 09:14:48;;;;;;;30.42;20.30;;;;;;;;;;5075878;28;20443;-83
2023/02/24 09:17:19;;;;;;;38.75;21.92;;;;;;;;;;5090508;28;20028;-83
2023/02/24 09:22:39;;;;;;;34.10;22.15;;;;;;;;;;5089511;28;20089;-84
2023/02/24 09:25:20;;;;;;;34.85;20.83;;;;;;;;;;5075783;28;20500;-82
2023/02/24 09:28:07;;;;;;;27.95;17.23;;;;;;;;;;5091731;28;20115;-82
2023/02/24 09:30:35;;;;;;;25.17;15.15;;;;;;;;;;5073842;28;20041;-82
2023/02/24 09:33:16;;;;;;;29.08;15.20;;;;;;;;;;5081077;28;20027;-83
2023/02/24 09:36:08;;;;;;;21.88;13.75;;;;;;;;;;5075157;28;20032;-83
2023/02/24 09:41:52;;;;;;;19.70;11.02;;;;;;;;;;5093735;28;20039;-82
2023/02/24 09:44:38;;;;;;;20.23;10.77;;;;;;;;;;5073310;28;20501;-82
2023/02/24 09:47:08;;;;;;;16.63;10.18;;;;;;;;;;5065198;28;20393;-82
2023/02/24 09:49:47;;;;;;;18.23;9.27;;;;;;;;;;5076523;28;20027;-82
2023/02/24 09:52:18;;;;;;;24.48;11.38;;;;;;;;;;5075893;28;20546;-82
2023/02/24 09:58:22;;;;;;;31.75;19.77;;;;;;;;;;5044445;28;20043;-83
2023/02/24 10:01:19;;;;;;;35.22;20.27;;;;;;;;;;5055133;28;20381;-82
2023/02/24 10:04:17;;;;;;;26.33;16.38;;;;;;;;;;5053271;28;20032;-82
2023/02/24 10:06:48;;;;;;;28.38;16.95;;;;;;;;;;5052805;28;20028;-82
2023/02/24 10:09:23;;;;;;;40.77;21.53;;;;;;;;;;5073821;28;20024;-81
2023/02/24 10:12:04;;;;;;;26.77;15.82;;;;;;;;;;5058509;28;20106;-83
2023/02/24 10:14:51;;;;;;;28.08;15.18;;;;;;;;;;5055495;28;20032;-82
2023/02/24 10:17:22;;;;;;;23.35;12.93;;;;;;;;;;5066391;28;20025;-83
2023/02/24 10:20:01;;;;;;;18.77;12.63;;;;;;;;;;5057402;28;20024;-82
2023/02/24 10:22:38;;;;;;;24.60;15.07;;;;;;;;;;5058363;28;20478;-82
2023/02/24 10:25:20;;;;;;;22.50;11.05;;;;;;;;;;5050927;28;20082;-83
2023/02/24 10:28:01;;;;;;;19.90;12.13;;;;;;;;;;5053834;28;20494;-82
2023/02/24 10:30:42;;;;;;;17.83;10.68;;;;;;;;;;5048841;28;20056;-83
2023/02/24 10:33:19;;;;;;;25.20;11.60;;;;;;;;;;5053840;28;20078;-83
2023/02/24 10:35:46;;;;;;;20.70;10.15;;;;;;;;;;5071848;28;20031;-82
2023/02/24 10:38:12;;;;;;;18.52;10.30;;;;;;;;;;5058779;28;20020;-81
2023/02/24 10:40:46;;;;;;;18.63;10.40;;;;;;;;;;5061358;28;20051;-83
2023/02/24 10:43:28;;;;;;;18.70;9.98;;;;;;;;;;5070073;28;20495;-82
2023/02/24 10:46:04;;;;;;;25.33;15.07;;;;;;;;;;5053168;28;20078;-82
2023/02/24 10:48:37;;;;;;;15.43;9.43;;;;;;;;;;5055744;28;20023;-82
2023/02/24 10:51:30;;;;;;;16.42;10.40;;;;;;;;;;5076436;28;20031;-83
2023/02/24 10:57:06;;;;;;;14.38;8.55;;;;;;;;;;5073744;28;20465;-83
2023/02/24 11:00:29;;;;;;;18.73;7.70;;;;;;;;;;5058761;28;20047;-82
2023/02/24 11:03:08;;;;;;;24.15;13.45;;;;;;;;;;5078699;28;20032;-81
2023/02/24 11:11:24;;;;;;;14.27;8.13;;;;;;;;;;5069923;28;20056;-82
2023/02/24 11:19:28;;;;;;;20.70;8.48;;;;;;;;;;5068936;28;20387;-82
2023/02/24 11:21:55;;;;;;;15.43;7.28;;;;;;;;;;5057970;28;20457;-82
2023/02/24 11:24:22;;;;;;;14.30;6.88;;;;;;;;;;5052218;28;20032;-81
2023/02/24 11:26:48;;;;;;;13.73;7.53;;;;;;;;;;5059291;28;20686;-83
2023/02/24 11:29:16;;;;;;;15.75;7.43;;;;;;;;;;5053732;28;20111;-82
2023/02/24 11:32:01;;;;;;;12.90;7.25;;;;;;;;;;5056219;28;20475;-83
2023/02/24 11:34:39;;;;;;;17.13;7.07;;;;;;;;;;5074731;28;20092;-81
2023/02/24 11:37:14;;;;;;;16.58;6.65;;;;;;;;;;5042851;28;20493;-82
2023/02/24 11:39:44;;;;;;;12.95;5.50;;;;;;;;;;5055958;28;20020;-82
2023/02/24 11:42:20;;;;;;;10.05;5.05;;;;;;;;;;5074202;28;20012;-82
2023/02/24 11:45:07;;;;;;;8.88;4.90;;;;;;;;;;5058255;28;20266;-82
2023/02/24 11:47:38;;;;;;;13.18;4.82;;;;;;;;;;5052294;28;20016;-83
2023/02/24 11:50:43;;;;;;;10.43;5.13;;;;;;;;;;5069157;28;20441;-81
2023/02/24 11:53:16;;;;;;;11.77;5.72;;;;;;;;;;4972899;28;20058;-82
2023/02/24 11:55:48;;;;;;;12.50;4.63;;;;;;;;;;4966317;28;20666;-82
2023/02/24 11:58:17;;;;;;;11.13;4.60;;;;;;;;;;5034242;28;20124;-81
2023/02/24 12:00:50;;;;;;;7.45;4.50;;;;;;;;;;5096858;27;20078;-82
2023/02/24 12:03:28;;;;;;;7.18;4.60;;;;;;;;;;5081598;28;20325;-82
2023/02/24 12:05:56;;;;;;;7.03;4.40;;;;;;;;;;5078507;27;20085;-81
2023/02/24 12:08:28;;;;;;;7.30;4.15;;;;;;;;;;5091916;27;20093;-82
2023/02/24 12:10:58;;;;;;;9.25;4.80;;;;;;;;;;5061107;28;20357;-83
2023/02/24 12:13:45;;;;;;;9.23;3.88;;;;;;;;;;5089275;27;20049;-82
2023/02/24 12:16:28;;;;;;;9.27;4.40;;;;;;;;;;5078276;28;20077;-82
2023/02/24 12:19:00;;;;;;;6.32;3.72;;;;;;;;;;5074292;28;20023;-81
2023/02/24 12:21:29;;;;;;;;;;;;;;;;;;5081840;27;20020;-83
2023/02/24 12:23:57;;;;;;;7.03;4.00;;;;;;;;;;5079989;27;19912;-82
2023/02/24 12:26:46;;;;;;;9.52;4.03;;;;;;;;;;5074133;28;20076;-82
2023/02/24 12:29:18;;;;;;;13.13;4.20;;;;;;;;;;5073275;28;20084;-80
2023/02/24 12:31:53;;;;;;;6.32;4.15;;;;;;;;;;5086285;27;20077;-82
2023/02/24 12:34:54;;;;;;;7.45;3.97;;;;;;;;;;5082530;27;20027;-83
2023/02/24 12:37:53;;;;;;;10.52;4.30;;;;;;;;;;5002743;28;20030;-82
2023/02/24 12:40:38;;;;;;;6.80;4.30;;;;;;;;;;5035613;28;20115;-82
2023/02/24 12:43:22;;;;;;;6.88;3.97;;;;;;;;;;5087105;28;20027;-81
2023/02/24 12:45:55;;;;;;;12.43;5.55;;;;;;;;;;5069900;27;20429;-83
2023/02/24 12:48:40;;;;;;;10.52;4.97;;;;;;;;;;5087033;28;20181;-83
2023/02/24 12:51:09;;;;;;;13.60;4.50;;;;;;;;;;5070957;28;20278;-83
2023/02/24 12:53:40;;;;;;;8.55;4.18;;;;;;;;;;5075703;28;20024;-84
2023/02/24 12:56:15;;;;;;;8.55;4.55;;;;;;;;;;5074876;27;20130;-83
2023/02/24 12:58:44;;;;;;;8.80;4.25;;;;;;;;;;5096971;27;20023;-84
2023/02/24 13:01:23;;;;;;;10.63;4.57;;;;;;;;;;5079736;28;20080;-82
2023/02/24 13:03:54;;;;;;;7.63;4.22;;;;;;;;;;5096719;27;20600;-84
2023/02/24 13:06:39;;;;;;;11.02;4.57;;;;;;;;;;5080786;28;20023;-82
2023/02/24 13:09:19;;;;;;;9.35;4.90;;;;;;;;;;5093908;27;20027;-83
2023/02/24 13:11:54;;;;;;;9.70;4.45;;;;;;;;;;5089629;27;20028;-83
2023/02/24 13:14:26;;;;;;;9.15;4.63;;;;;;;;;;5091894;28;20012;-81
2023/02/24 13:17:02;;;;;;;7.75;5.03;;;;;;;;;;5073143;28;20035;-83
2023/02/24 13:19:29;;;;;;;12.73;5.30;;;;;;;;;;5068700;28;20123;-83
2023/02/24 13:21:57;;;;;;;8.30;4.28;;;;;;;;;;5075655;28;20103;-83
2023/02/24 13:24:25;;;;;;;8.98;4.40;;;;;;;;;;5080982;28;20042;-83
2023/02/24 13:26:51;;;;;;;11.43;4.88;;;;;;;;;;5092164;28;20093;-81
2023/02/24 13:29:17;;;;;;;9.75;5.35;;;;;;;;;;5077989;28;20015;-81
2023/02/24 13:31:44;;;;;;;7.38;4.53;;;;;;;;;;5090194;28;20167;-81
2023/02/24 13:34:14;;;;;;;11.18;4.70;;;;;;;;;;5077695;28;20031;-81
2023/02/24 13:36:48;;;;;;;9.38;4.60;;;;;;;;;;5092695;28;20482;-81
2023/02/24 13:39:28;;;;;;;14.60;5.05;;;;;;;;;;5074165;28;20030;-81
2023/02/24 13:42:06;;;;;;;10.10;5.25;;;;;;;;;;5094557;28;20011;-81
2023/02/24 13:44:33;;;;;;;14.25;5.18;;;;;;;;;;5087884;28;20054;-82
2023/02/24 13:47:09;;;;;;;8.95;4.90;;;;;;;;;;5082094;28;20032;-82
2023/02/24 13:49:44;;;;;;;9.50;4.90;;;;;;;;;;5075574;28;20023;-82
2023/02/24 13:52:16;;;;;;;12.95;5.90;;;;;;;;;;5086625;28;20099;-80
2023/02/24 13:55:03;;;;;;;7.25;4.95;;;;;;;;;;5093155;28;20270;-81
2023/02/24 13:57:29;;;;;;;10.90;5.00;;;;;;;;;;5082135;28;20071;-82
2023/02/24 13:59:59;;;;;;;13.73;6.03;;;;;;;;;;5098114;28;20023;-81
2023/02/24 14:02:27;;;;;;;11.63;6.18;;;;;;;;;;5079646;28;20057;-80
2023/02/24 14:04:55;;;;;;;12.30;6.38;;;;;;;;;;5088322;28;20060;-80
2023/02/24 14:07:23;;;;;;;11.85;6.20;;;;;;;;;;5081562;28;20098;-81
2023/02/24 14:10:00;;;;;;;11.75;5.97;;;;;;;;;;5091097;27;20024;-82
2023/02/24 14:12:28;;;;;;;12.80;6.20;;;;;;;;;;5079876;28;20035;-82
2023/02/24 14:14:55;;;;;;;11.25;5.80;;;;;;;;;;5075636;27;20050;-81
2023/02/24 14:17:24;;;;;;;10.27;5.15;;;;;;;;;;5094217;27;20131;-81
2023/02/24 14:19:50;;;;;;;11.68;5.30;;;;;;;;;;5097791;28;20180;-81
2023/02/24 14:22:18;;;;;;;9.52;4.97;;;;;;;;;;5083204;28;20063;-80
2023/02/24 14:24:44;;;;;;;9.40;3.72;;;;;;;;;;5100174;27;20024;-80
2023/02/24 14:27:19;;;;;;;11.45;4.78;;;;;;;;;;5080057;28;20533;-80
2023/02/24 14:29:45;;;;;;;11.70;4.00;;;;;;;;;;5092030;27;20027;-81
2023/02/24 14:32:19;;;;;;;13.07;3.85;;;;;;;;;;5069443;27;20038;-80
2023/02/24 14:34:46;;;;;;;10.98;4.03;;;;;;;;;;5095753;27;20867;-80
2023/02/24 14:37:16;;;;;;;11.98;5.07;;;;;;;;;;5092401;27;20031;-81
2023/02/24 14:39:51;;;;;;;7.82;3.97;;;;;;;;;;5092067;28;20513;-81
2023/02/24 14:42:19;;;;;;;12.88;4.18;;;;;;;;;;5071375;28;20031;-81
2023/02/24 14:44:50;;;;;;;13.73;4.47;;;;;;;;;;5093156;28;20088;-81
2023/02/24 14:47:17;;;;;;;15.37;5.13;;;;;;;;;;5084770;27;20014;-82
2023/02/24 14:49:51;;;;;;;15.98;5.30;;;;;;;;;;5078378;28;20182;-81
2023/02/24 14:52:36;;;;;;;12.00;5.18;;;;;;;;;;5095735;27;20051;-82
2023/02/24 14:55:20;;;;;;;12.50;4.50;;;;;;;;;;5078859;27;20114;-83
2023/02/24 14:58:02;;;;;;;13.93;4.85;;;;;;;;;;5082820;28;20023;-81
2023/02/24 15:00:28;;;;;;;;;;;;;;;;;;5093155;28;20071;-81
2023/02/24 15:03:01;;;;;;;12.85;4.43;;;;;;;;;;5075531;28;20267;-81
2023/02/24 15:05:27;;;;;;;11.57;3.83;;;;;;;;;;5075716;28;20034;-82
2023/02/24 15:07:53;;;;;;;8.68;4.10;;;;;;;;;;5076596;28;20173;-82
2023/02/24 15:10:22;;;;;;;14.70;5.15;;;;;;;;;;5078320;28;20035;-81
2023/02/24 15:12:51;;;;;;;16.52;5.75;;;;;;;;;;5074203;28;20068;-81
2023/02/24 15:15:20;;;;;;;12.80;4.93;;;;;;;;;;5080037;27;20051;-81
2023/02/24 15:17:47;;;;;;;14.23;4.70;;;;;;;;;;5080282;28;20363;-81
2023/02/24 15:20:43;;;;;;;14.27;4.13;;;;;;;;;;5079650;28;20027;-83
2023/02/24 15:23:26;;;;;;;13.32;4.15;;;;;;;;;;5067482;27;20031;-82
2023/02/24 15:25:53;;;;;;;12.57;4.55;;;;;;;;;;5090313;28;20163;-81
2023/02/24 15:28:31;;;;;;;13.07;4.20;;;;;;;;;;5076104;28;20080;-80